Weather at Natashquan (Lac De L'Avion) Seaplane Base

Public forecast

Using degrees Celsius for public forecast. Weather courtesy of forecast.io.

Closest aviation weather report (METAR) to Natashquan (Lac De L'Avion) Seaplane Base

Report is more than 6 hours old.

Closest report is Natashquan Airport, 1.4 nm (2.5 km) W.

2022/11/14 15:00 (retrieved 2 years ago)

CYNA 141500Z AUTO 04018G25KT 1/4SM +SN VV004 M04/M05 A2960 RMK SLP027

Closest aviation forecast (TAF) to Natashquan (Lac De L'Avion) Seaplane Base

Forecast is more than 12 hours old.

Closest forecast is Natashquan Airport, 1.4 nm (2.5 km) W.

2023/02/22 20:00 (retrieved 1 year ago)

TAF CYNA 221940Z 2220/2308 02005KT P6SM BKN040 TEMPO 2220/2303 5SM -SN OVC020 BECMG 2223/2301 33015KT FM230300 33015KT P6SM SCT040 RMK FCST BASED ON AUTO OBS NXT FCST BY 230200Z